Time;durP1;ratioP1;P1;durP2;ratioP2;P2;SDS_P1;SDS_P2;PMS_P1;PMS_P2;Temp;Humidity;BMP_temperature;BMP_pressure;BME280_temperature;BME280_humidity;BME280_pressure;Samples;Min_cycle;Max_cycle;Signal;HPM_P1;HPM_P2
2022/12/22 03:25:52;;;;;;;;;;;;;;;6.86;89.59;97316.81;5086579;28;19926;-69
2022/12/22 03:28:21;;;;;;;;;;;;;;;6.81;89.48;97315.81;5101252;28;19924;-68
2022/12/22 03:30:53;;;;;;;;;;;;;;;6.76;89.59;97318.59;5100535;28;19927;-68
2022/12/22 03:33:23;;;;;;;;;;;;;;;6.76;89.87;97307.81;5113830;27;20481;-69
2022/12/22 03:35:50;;;;;;;;;;;;;;;6.75;90.31;97306.22;5091415;28;19946;-68
2022/12/22 03:38:18;;;;;;;;;;;;;;;6.75;90.47;97311.59;5101958;28;19934;-68
2022/12/22 03:40:47;;;;;;;;;;;;;;;6.71;90.66;97317.91;5084195;27;19924;-68
2022/12/22 03:51:42;;;;;;;;;;;;;;;6.81;90.49;97296.09;5100436;28;20388;-68
2022/12/22 03:54:11;;;;;;;;;;;;;;;6.88;90.08;97295.72;5105802;27;19935;-68
2022/12/22 03:56:40;;;;;;;;;;;;;;;6.83;90.31;97286.63;5103488;27;19962;-66
2022/12/22 03:59:08;;;;;;;;;;;;;;;6.79;90.52;97280.22;5105240;28;20326;-67
2022/12/22 04:01:37;;;;;;;;;;;;;;;6.78;90.59;97291.31;5117968;27;19963;-68
2022/12/22 04:04:06;;;;;;;;;;;;;;;6.74;91.06;97285.72;5099059;28;19931;-67
2022/12/22 04:06:35;;;;;;;;;;;;;;;6.79;91.11;97277.50;5116612;27;19927;-69
2022/12/22 04:09:03;;;;;;;;;;;;;;;6.77;91.01;97279.72;5095452;27;20381;-68
2022/12/22 04:14:16;;;;;;;;;;;;;;;6.79;91.46;97277.50;5109493;27;19938;-68
2022/12/22 04:16:45;;;;;;;;;;;;;;;6.95;90.62;97275.28;5110820;28;19932;-68
2022/12/22 04:19:14;;;;;;;;;;;;;;;6.90;90.59;97272.69;5085991;28;19924;-67
2022/12/22 04:21:43;;;;;;;;;;;;;;;6.87;91.15;97275.19;5101090;27;19930;-68
2022/12/22 04:24:12;;;;;;;;;;;;;;;6.86;91.36;97285.19;5104382;28;20024;-68
2022/12/22 04:26:40;;;;;;;;;;;;;;;6.96;91.23;97265.28;5112561;27;19935;-68
2022/12/22 04:29:08;;;;;;;;;;;;;;;6.90;91.37;97269.19;5103698;28;20383;-68
2022/12/22 04:31:36;;;;;;;;;;;;;;;6.87;91.51;97276.03;5104897;28;19924;-69
2022/12/22 04:34:04;;;;;;;;;;;;;;;6.94;91.21;97264.81;5087333;28;19930;-68
2022/12/22 04:36:34;;;;;;;;;;;;;;;6.90;91.63;97259.19;5108291;28;19924;-68
2022/12/22 04:39:27;;;;;;;;;;;;;;;6.97;91.14;97262.28;5106953;27;19979;-68
2022/12/22 04:41:55;;;;;;;;;;;;;;;6.85;91.13;97248.50;5111869;27;19993;-68
2022/12/22 04:44:23;;;;;;;;;;;;;;;6.92;91.46;97256.19;5107097;27;19977;-70
2022/12/22 04:46:51;;;;;;;;;;;;;;;6.92;91.21;97235.38;5110501;27;19931;-69
2022/12/22 04:49:19;;;;;;;;;;;;;;;7.06;91.06;97243.47;5107250;27;19924;-69
2022/12/22 04:51:49;;;;;;;;;;;;;;;6.99;90.98;97233.09;5094554;27;19975;-69
2022/12/22 04:54:17;;;;;;;;;;;;;;;6.95;91.10;97228.59;5101889;27;19967;-68
2022/12/22 04:56:45;;;;;;;;;;;;;;;7.09;90.84;97230.16;5103947;27;20384;-71
2022/12/22 04:59:13;;;;;;;;;;;;;;;7.04;91.10;97234.88;5102397;27;19930;-69
2022/12/22 05:01:42;;;;;;;;;;;;;;;6.99;90.99;97230.38;5100467;28;19931;-69
2022/12/22 05:04:10;;;;;;;;;;;;;;;6.91;91.18;97230.28;5103935;28;20292;-68
2022/12/22 05:06:38;;;;;;;;;;;;;;;7.05;90.93;97223.75;5111443;28;19930;-69
2022/12/22 05:09:10;;;;;;;;;;;;;;;7.05;90.93;97214.84;5111559;28;19959;-69
2022/12/22 05:11:39;;;;;;;;;;;;;;;6.98;91.08;97220.69;5097049;28;19935;-69
2022/12/22 05:14:07;;;;;;;;;;;;;;;7.04;90.82;97229.47;5088559;27;19935;-69
2022/12/22 05:16:35;;;;;;;;;;;;;;;7.00;90.59;97223.06;5102446;27;20258;-68
2022/12/22 05:19:03;;;;;;;;;;;;;;;6.95;90.99;97229.38;5089807;28;19923;-69
2022/12/22 05:21:31;;;;;;;;;;;;;;;6.93;91.16;97220.81;5102841;27;19934;-69
2022/12/22 05:23:59;;;;;;;;;;;;;;;6.93;91.25;97211.91;5105385;27;19924;-69
2022/12/22 05:26:29;;;;;;;;;;;;;;;6.98;91.05;97220.69;5065935;28;19925;-68
2022/12/22 05:28:57;;;;;;;;;;;;;;;7.12;90.43;97212.53;5061233;28;20389;-68
2022/12/22 05:31:26;;;;;;;;;;;;;;;7.04;90.67;97216.75;5049774;28;19925;-69
2022/12/22 05:33:54;;;;;;;;;;;;;;;7.17;90.12;97214.31;5060627;28;19928;-63
2022/12/22 05:36:22;;;;;;;;;;;;;;;7.12;90.22;97204.41;5057298;28;19933;-69
2022/12/22 05:38:55;;;;;;;;;;;;;;;7.12;90.35;97200.91;5064016;28;19925;-70
2022/12/22 05:41:23;;;;;;;;;;;;;;;7.33;89.39;97196.63;5069630;28;19924;-67
2022/12/22 05:43:53;;;;;;;;;;;;;;;7.32;88.70;97205.84;5066744;28;19932;-69
2022/12/22 05:46:21;;;;;;;;;;;;;;;7.22;89.61;97196.06;5058821;28;19931;-65
2022/12/22 05:48:49;;;;;;;;;;;;;;;7.24;89.67;97209.28;5077674;28;20435;-73
2022/12/22 05:51:42;;;;;;;;;;;;;;;7.38;89.33;97215.41;5067541;28;19932;-72
2022/12/22 05:54:11;;;;;;;;;;;;;;;7.23;89.24;97216.59;5055890;28;19931;-69
2022/12/22 05:56:39;;;;;;;;;;;;;;;7.23;89.64;97218.50;5068131;28;19925;-71
2022/12/22 05:59:11;;;;;;;;;;;;;;;7.36;89.15;97212.25;5069539;28;19941;-69
2022/12/22 06:01:39;;;;;;;;;;;;;;;7.43;88.82;97217.22;5061933;28;19925;-72
2022/12/22 06:04:08;;;;;;;;;;;;;;;7.39;88.62;97206.22;5071393;28;20343;-70
2022/12/22 06:06:37;;;;;;;;;;;;;;;7.31;88.93;97221.25;5063963;28;19928;-70
2022/12/22 06:09:08;;;;;;;;;;;;;;;7.52;88.18;97208.06;5075019;28;20309;-69
2022/12/22 06:11:35;;;;;;;;;;;;;;;7.40;88.00;97224.00;5058056;28;19971;-69
2022/12/22 06:14:04;;;;;;;;;;;;;;;7.32;88.36;97217.44;5061267;28;19925;-69
2022/12/22 06:16:33;;;;;;;;;;;;;;;7.44;87.59;97216.09;5070370;28;19928;-69
2022/12/22 06:19:01;;;;;;;;;;;;;;;7.39;88.16;97197.31;5062834;28;19925;-70
2022/12/22 06:21:29;;;;;;;;;;;;;;;7.56;88.01;97187.41;5058796;28;19928;-68
2022/12/22 06:23:58;;;;;;;;;;;;;;;7.46;87.87;97197.69;5055911;28;19932;-69
2022/12/22 06:26:26;;;;;;;;;;;;;;;7.35;88.39;97200.63;5088885;28;20284;-70
2022/12/22 06:28:54;;;;;;;;;;;;;;;7.33;88.78;97202.84;5100253;27;19946;-64
2022/12/22 06:31:22;;;;;;;;;;;;;;;7.46;88.24;97205.78;5108817;28;20380;-69
2022/12/22 06:33:51;;;;;;;;;;;;;;;7.45;88.31;97204.19;5099499;28;19946;-69
2022/12/22 06:36:20;;;;;;;;;;;;;;;7.47;88.22;97196.56;5102816;28;19931;-69
2022/12/22 06:38:48;;;;;;;;;;;;;;;7.52;87.89;97194.53;5099070;28;20380;-69
2022/12/22 06:43:07;;;;;;;;;;;;;;;7.64;87.79;97191.28;5084566;28;19924;-70
2022/12/22 06:44:04;;;;;;;;;;;;;;;7.69;87.15;97171.41;5103582;28;19932;-70
2022/12/22 06:46:32;;;;;;;;;;;;;;;7.63;87.65;97178.88;5106017;28;19927;-72
2022/12/22 06:49:01;;;;;;;;;;;;;;;7.63;87.66;97178.06;5097495;28;20030;-68
2022/12/22 06:51:31;;;;;;;;;;;;;;;7.64;87.45;97179.66;5108211;28;20237;-70
2022/12/22 06:53:59;;;;;;;;;;;;;;;7.73;87.02;97178.59;5100329;28;20342;-71
2022/12/22 06:56:27;;;;;;;;;;;;;;;7.67;87.31;97182.56;5106109;27;19998;-70
2022/12/22 06:58:55;;;;;;;;;;;;;;;7.74;86.96;97182.91;5099532;27;20516;-71
2022/12/22 07:01:23;;;;;;;;;;;;;;;7.77;87.13;97186.88;5104402;28;19978;-71
2022/12/22 07:03:51;;;;;;;;;;;;;;;7.68;87.64;97186.84;5109993;28;19927;-70
2022/12/22 07:06:23;;;;;;;;;;;;;;;7.65;88.06;97181.25;5072586;27;19924;-68
2022/12/22 07:08:54;;;;;;;;;;;;;;;7.72;87.69;97182.38;5103584;28;19932;-72
2022/12/22 07:11:22;;;;;;;;;;;;;;;7.75;87.84;97191.81;5107777;27;19927;-70
2022/12/22 07:13:51;;;;;;;;;;;;;;;7.70;88.28;97183.81;5100830;27;19924;-71
2022/12/22 07:16:19;;;;;;;;;;;;;;;7.68;88.93;97176.03;5101076;27;19931;-71
2022/12/22 07:18:47;;;;;;;;;;;;;;;7.83;88.57;97183.75;5107032;27;19950;-70
2022/12/22 07:21:15;;;;;;;;;;;;;;;7.84;88.65;97177.22;5080782;28;19924;-70
2022/12/22 07:23:48;;;;;;;;;;;;;;;7.81;88.41;97179.75;5099666;28;19927;-70
2022/12/22 07:26:16;;;;;;;;;;;;;;;7.65;89.10;97173.94;5086374;27;19928;-67
2022/12/22 07:28:44;;;;;;;;;;;;;;;7.67;89.36;97173.63;5097911;28;19931;-71
2022/12/22 07:31:13;;;;;;;;;;;;;;;7.64;89.65;97175.03;5082864;28;20334;-70
2022/12/22 07:33:41;;;;;;;;;;;;;;;7.72;89.18;97170.78;5105789;27;19931;-71
2022/12/22 07:36:10;;;;;;;;;;;;;;;7.82;89.02;97140.78;5105069;28;19931;-71
2022/12/22 07:38:43;;;;;;;;;;;;;;;7.76;88.90;97180.66;5100109;27;19924;-67
2022/12/22 07:44:05;;;;;;;;;;;;;;;7.85;88.83;97170.69;5093356;28;19932;-72
2022/12/22 07:46:36;;;;;;;;;;;;;;;7.83;88.63;97170.22;5100556;27;19940;-70
2022/12/22 07:51:56;;;;;;;;;;;;;;;7.94;88.59;97168.03;5092160;27;19939;-68
2022/12/22 07:54:24;;;;;;;;;;;;;;;8.14;87.63;97145.03;5087290;28;19924;-63
2022/12/22 07:56:54;;;;;;;;;;;;;;;7.99;87.74;97167.09;5091074;28;19932;-70
2022/12/22 07:59:22;;;;;;;;;;;;;;;8.08;88.26;97170.63;5096958;27;19932;-61
2022/12/22 08:01:50;;;;;;;;;;;;;;;8.11;87.97;97156.50;5104510;27;19924;-63
2022/12/22 08:04:18;;;;;;;;;;;;;;;8.05;87.95;97155.03;5087393;28;19930;-62
2022/12/22 08:06:51;;;;;;;;;;;;;;;8.01;87.96;97156.75;5096422;28;19935;-62
2022/12/22 08:09:21;;;;;;;;;;;;;;;8.00;88.19;97160.59;5092886;28;19928;-62
2022/12/22 08:11:50;;;;;;;;;;;;;;;8.01;88.16;97164.88;5101349;28;19930;-61
2022/12/22 08:14:19;;;;;;;;;;;;;;;8.19;87.49;97163.03;5087032;28;19932;-62
2022/12/22 08:16:47;;;;;;;;;;;;;;;8.02;87.95;97150.25;5094622;28;20387;-62
2022/12/22 08:19:15;;;;;;;;;;;;;;;8.21;88.48;97153.50;5093657;28;19932;-61
2022/12/22 08:24:36;;;;;;;;;;;;;;;8.27;86.52;97168.47;5101688;27;19931;-62
2022/12/22 08:27:05;;;;;;;;;;;;;;;8.30;86.05;97169.75;5095183;27;19942;-61
2022/12/22 08:29:35;;;;;;;;;;;;;;;8.30;85.78;97173.25;5091901;28;20053;-62
2022/12/22 08:32:04;;;;;;;;;;;;;;;8.28;86.04;97171.97;5088205;27;20031;-63
2022/12/22 08:34:32;;;;;;;;;;;;;;;8.29;85.48;97158.13;5079889;28;19924;-62
2022/12/22 08:37:07;;;;;;;;;;;;;;;8.35;85.47;97156.84;5095303;27;19974;-65
2022/12/22 08:39:36;;;;;;;;;;;;;;;8.37;85.49;97156.59;5083004;28;20304;-61
2022/12/22 08:42:04;;;;;;;;;;;;;;;8.39;85.14;97162.47;5102287;27;20031;-62
2022/12/22 08:44:33;;;;;;;;;;;;;;;8.29;85.98;97158.13;5105278;28;20377;-63
2022/12/22 08:47:03;;;;;;;;;;;;;;;8.28;86.26;97161.94;5102380;27;19932;-61
2022/12/22 08:49:31;;;;;;;;;;;;;;;8.33;86.04;97153.69;5077039;28;19925;-63
2022/12/22 08:51:59;;;;;;;;;;;;;;;8.43;85.59;97151.81;5103930;27;20292;-61
2022/12/22 08:54:27;;;;;;;;;;;;;;;8.47;85.56;97155.47;5108645;27;20015;-62
2022/12/22 08:56:57;;;;;;;;;;;;;;;8.65;84.43;97159.81;5081550;28;19970;-62
2022/12/22 08:59:25;;;;;;;;;;;;;;;8.69;84.53;97160.78;5082765;28;20022;-62
2022/12/22 09:01:53;;;;;;;;;;;;;;;8.78;83.95;97158.06;5099488;27;19932;-62
2022/12/22 09:04:24;;;;;;;;;;;;;;;8.80;83.63;97162.06;5090697;28;19932;-61
2022/12/22 09:06:53;;;;;;;;;;;;;;;8.85;83.09;97148.38;5095017;27;20384;-65
2022/12/22 09:09:22;;;;;;;;;;;;;;;8.98;82.72;97151.22;5099859;28;19980;-63
2022/12/22 09:11:50;;;;;;;;;;;;;;;9.09;82.03;97160.63;5097424;27;20268;-61
2022/12/22 09:14:18;;;;;;;;;;;;;;;9.35;81.02;97169.53;5066518;27;20348;-66
2022/12/22 09:16:47;;;;;;;;;;;;;;;9.32;80.23;97162.06;5084661;28;19932;-61
2022/12/22 09:19:15;;;;;;;;;;;;;;;9.31;80.29;97165.88;5102643;27;19928;-61
2022/12/22 09:21:44;;;;;;;;;;;;;;;9.30;80.29;97158.84;5094693;28;19958;-63
2022/12/22 09:24:13;;;;;;;;;;;;;;;9.41;80.02;97159.31;5101405;27;19931;-64
2022/12/22 09:26:41;;;;;;;;;;;;;;;9.47;79.55;97155.31;5093419;27;19924;-61
2022/12/22 09:32:03;;;;;;;;;;;;;;;9.54;78.56;97158.34;5095911;28;19923;-61
2022/12/22 09:34:32;;;;;;;;;;;;;;;9.55;78.42;97151.81;5096479;28;20357;-62
2022/12/22 09:39:54;;;;;;;;;;;;;;;9.56;78.68;97156.09;5090192;28;19999;-66
2022/12/22 09:42:22;;;;;;;;;;;;;;;9.48;78.79;97166.94;5094279;28;19924;-62
2022/12/22 09:44:50;;;;;;;;;;;;;;;9.61;78.23;97147.00;5090741;28;19924;-62
2022/12/22 09:47:45;;;;;;;;;;;;;;;9.60;78.16;97145.41;5086360;28;19969;-63
2022/12/22 09:50:36;;;;;;;;;;;;;;;9.55;78.13;97164.56;5081579;28;19935;-62
2022/12/22 09:53:06;;;;;;;;;;;;;;;9.45;78.47;97155.63;5080195;28;19927;-63
2022/12/22 09:55:38;;;;;;;;;;;;;;;9.45;78.52;97158.34;5091466;28;20292;-61
2022/12/22 09:58:09;;;;;;;;;;;;;;;9.47;78.51;97152.59;5084216;28;20027;-61
2022/12/22 10:00:40;;;;;;;;;;;;;;;9.42;78.50;97148.13;5096471;28;19955;-63
2022/12/22 10:03:09;;;;;;;;;;;;;;;9.50;78.61;97145.75;5100016;28;19946;-65
2022/12/22 10:05:42;;;;;;;;;;;;;;;9.69;77.36;97140.75;5101736;28;19958;-62
2022/12/22 10:08:12;;;;;;;;;;;;;;;9.81;76.76;97132.75;5084942;28;20363;-62
2022/12/22 10:10:41;;;;;;;;;;;;;;;9.85;76.63;97133.66;5102288;28;19928;-63
2022/12/22 10:13:12;;;;;;;;;;;;;;;9.87;76.26;97134.16;5095980;28;19931;-62
2022/12/22 10:15:41;;;;;;;;;;;;;;;9.77;76.47;97137.22;5079587;28;19958;-62
2022/12/22 10:18:13;;;;;;;;;;;;;;;9.73;76.63;97138.97;5093792;28;20320;-62
2022/12/22 10:20:42;;;;;;;;;;;;;;;9.72;76.90;97131.97;5093242;28;19924;-62
2022/12/22 10:23:18;;;;;;;;;;;;;;;9.85;76.69;97138.28;5077943;28;19935;-62
2022/12/22 10:25:59;;;;;;;;;;;;;;;9.89;74.90;97125.66;5066983;28;20012;-62
2022/12/22 10:28:48;;;;;;;;;;;;;;;9.78;76.15;97117.09;5042029;28;19925;-63
2022/12/22 10:31:18;;;;;;;;;;;;;;;9.80;75.71;97123.00;5059365;28;19944;-61
2022/12/22 10:33:48;;;;;;;;;;;;;;;9.82;75.66;97125.41;5044471;28;19929;-66
2022/12/22 10:36:19;;;;;;;;;;;;;;;10.09;74.76;97116.81;5059797;28;20063;-68
2022/12/22 10:39:02;;;;;;;;;;;;;;;10.19;73.86;97124.56;5064080;28;19928;-66
2022/12/22 10:41:55;;;;;;;;;;;;;;;10.15;73.71;97120.91;5065078;28;19927;-66
2022/12/22 10:44:24;;;;;;;;;;;;;;;10.19;73.82;97123.78;5056497;28;19972;-69
2022/12/22 10:46:53;;;;;;;;;;;;;;;10.18;73.60;97123.00;5054268;28;19990;-66
2022/12/22 10:49:22;;;;;;;;;;;;;;;10.22;72.92;97118.47;5059352;28;20448;-67
2022/12/22 10:51:51;;;;;;;;;;;;;;;10.23;73.58;97113.88;5059766;28;19924;-66
2022/12/22 10:54:32;;;;;;;;;;;;;;;10.19;74.00;97118.34;5058910;28;19943;-67
2022/12/22 10:57:04;;;;;;;;;;;;;;;10.17;73.62;97120.59;5055711;28;20049;-68
2022/12/22 10:59:33;;;;;;;;;;;;;;;10.22;73.52;97118.47;5072919;28;19955;-66
2022/12/22 11:02:21;;;;;;;;;;;;;;;10.26;73.64;97115.16;5054380;28;19932;-66
2022/12/22 11:04:51;;;;;;;;;;;;;;;10.18;74.43;97114.06;5054293;28;20492;-68
2022/12/22 11:07:19;;;;;;;;;;;;;;;10.28;73.54;97116.44;5063608;28;20388;-67
2022/12/22 11:09:49;;;;;;;;;;;;;;;10.23;73.58;97114.69;5059387;28;19933;-63
2022/12/22 11:12:19;;;;;;;;;;;;;;;10.39;73.47;97119.56;5059774;28;20377;-61
2022/12/22 11:14:49;;;;;;;;;;;;;;;10.47;73.01;97113.25;5077055;28;19925;-61
2022/12/22 11:17:43;;;;;;;;;;;;;;;10.44;72.83;97114.72;5058883;28;20262;-61
2022/12/22 11:20:24;;;;;;;;;;;;;;;10.46;72.55;97112.47;5062753;28;19925;-61
2022/12/22 11:22:53;;;;;;;;;;;;;;;10.46;72.52;97117.09;5070286;28;19932;-62
2022/12/22 11:25:28;;;;;;;;;;;;;;;10.44;73.22;97122.09;5067513;28;19924;-61
2022/12/22 11:28:23;;;;;;;;;;;;;;;10.36;73.69;97129.13;5099506;27;19931;-61
2022/12/22 11:30:54;;;;;;;;;;;;;;;10.30;74.63;97124.22;5099001;27;19924;-62
2022/12/22 11:33:28;;;;;;;;;;;;;;;10.25;75.28;97117.06;5106989;27;19924;-61
2022/12/22 11:35:57;;;;;;;;;;;;;;;10.20;75.31;97112.59;5101902;27;19924;-61
2022/12/22 11:38:30;;;;;;;;;;;;;;;10.12;75.82;97113.44;5081189;27;19925;-61
2022/12/22 11:41:26;;;;;;;;;;;;;;;10.22;75.58;97102.19;5095759;27;19928;-61
2022/12/22 11:43:58;;;;;;;;;;;;;;;10.19;75.74;97093.94;5082777;28;19923;-61
2022/12/22 11:46:27;;;;;;;;;;;;;;;10.19;76.38;97100.16;5104570;27;19953;-61
2022/12/22 11:51:58;;;;;;;;;;;;;;;10.19;76.69;97099.34;5102179;27;20404;-61
2022/12/22 11:57:38;;;;;;;;;;;;;;;10.13;76.35;97079.75;5096962;27;20018;-60
2022/12/22 12:00:32;;;;;;;;;;;;;;;10.05;76.79;97090.66;5085237;27;20411;-61
2022/12/22 12:03:26;;;;;;;;;;;;;;;10.06;76.98;97092.22;5099010;27;19931;-61
2022/12/22 12:06:04;;;;;;;;;;;;;;;10.12;76.16;97090.91;5100435;27;19924;-62
2022/12/22 12:08:34;;;;;;;;;;;;;;;10.01;76.68;97090.50;5080066;28;19923;-61
2022/12/22 12:11:07;;;;;;;;;;;;;;;9.91;77.13;97080.84;5106352;27;20372;-60
2022/12/22 12:13:38;;;;;;;;;;;;;;;9.92;77.04;97087.03;5100036;27;19981;-60
2022/12/22 12:16:10;;;;;;;;;;;;;;;9.86;77.57;97091.06;5094437;28;20008;-60
2022/12/22 12:18:45;;;;;;;;;;;;;;;9.78;78.02;97091.91;5097066;27;19932;-61
2022/12/22 12:21:20;;;;;;;;;;;;;;;9.71;78.34;97098.63;5093660;28;19981;-60
2022/12/22 12:23:52;;;;;;;;;;;;;;;9.74;78.52;97091.75;5079658;28;19962;-61
2022/12/22 12:26:22;;;;;;;;;;;;;;;9.63;79.38;97094.00;5071404;28;19977;-61
2022/12/22 12:28:54;;;;;;;;;;;;;;;9.61;79.87;97098.19;5063162;28;20388;-61
2022/12/22 12:31:23;;;;;;;;;;;;;;;9.64;79.52;97105.66;5056840;28;20144;-61
2022/12/22 12:33:54;;;;;;;;;;;;;;;9.72;79.72;97110.25;5065661;28;19950;-62
2022/12/22 12:36:23;;;;;;;;;;;;;;;9.83;79.75;97097.94;5058172;28;19956;-62
2022/12/22 12:38:54;;;;;;;;;;;;;;;9.84;79.25;97104.94;5056004;28;20343;-61
2022/12/22 12:41:41;;;;;;;;;;;;;;;9.93;78.68;97111.13;5060594;28;19924;-61
2022/12/22 12:44:13;;;;;;;;;;;;;;;9.95;78.79;97106.16;5051205;28;19997;-61
2022/12/22 12:46:46;;;;;;;;;;;;;;;9.91;79.29;97102.53;5060185;28;20388;-60
2022/12/22 12:49:38;;;;;;;;;;;;;;;9.84;79.71;97112.28;5063574;28;20022;-61
2022/12/22 12:52:48;;;;;;;;;;;;;;;9.78;80.23;97114.38;5047188;28;19935;-62
2022/12/22 12:55:59;;;;;;;;;;;;;;;9.76;80.50;97119.34;5058177;28;19990;-62
2022/12/22 12:58:46;;;;;;;;;;;;;;;9.67;81.49;97113.94;5058597;28;19955;-62
2022/12/22 13:01:30;;;;;;;;;;;;;;;9.62;82.02;97113.34;5058510;28;19930;-62
2022/12/22 13:03:59;;;;;;;;;;;;;;;9.65;82.33;97127.03;5053668;28;19928;-61
2022/12/22 13:06:45;;;;;;;;;;;;;;;9.65;82.41;97112.69;5057445;28;20336;-62
2022/12/22 13:09:18;;;;;;;;;;;;;;;9.54;82.67;97117.66;5059263;28;20001;-61
2022/12/22 13:12:20;;;;;;;;;;;;;;;9.55;83.43;97113.84;5051237;28;19958;-62
2022/12/22 13:14:55;;;;;;;;;;;;;;;9.55;83.32;97121.19;5057450;28;20229;-62
2022/12/22 13:17:32;;;;;;;;;;;;;;;9.42;83.71;97140.00;5054301;28;20419;-61
2022/12/22 13:20:03;;;;;;;;;;;;;;;9.45;84.04;97141.28;5062164;28;19970;-61
2022/12/22 13:22:30;;;;;;;;;;;;;;;9.49;83.84;97149.59;5059518;28;19951;-62
2022/12/22 13:24:59;;;;;;;;;;;;;;;9.45;84.16;97150.22;5061520;28;20295;-62
2022/12/22 13:27:27;;;;;;;;;;;;;;;9.51;83.73;97141.91;5099000;27;20045;-61
2022/12/22 13:29:58;;;;;;;;;;;;;;;9.55;83.81;97148.28;5094294;27;21548;-61
2022/12/22 13:32:27;;;;;;;;;;;;;;;9.52;83.83;97154.34;5100875;27;19970;-61
2022/12/22 13:35:01;;;;;;;;;;;;;;;9.42;84.47;97160.91;5082553;28;19927;-62
2022/12/22 13:37:52;;;;;;;;;;;;;;;9.45;84.14;97171.13;5096649;27;19924;-61
2022/12/22 13:40:21;;;;;;;;;;;;;;;9.42;84.33;97167.13;5097209;27;20422;-62
2022/12/22 13:42:50;;;;;;;;;;;;;;;9.47;84.35;97184.34;5094358;28;19954;-61
2022/12/22 13:45:25;;;;;;;;;;;;;;;9.55;83.52;97175.41;5083644;28;19924;-64
2022/12/22 13:47:54;;;;;;;;;;;;;;;9.52;83.35;97181.47;5096362;28;19955;-62
2022/12/22 13:50:23;;;;;;;;;;;;;;;9.57;83.39;97178.59;5103609;27;19924;-66
2022/12/22 13:52:52;;;;;;;;;;;;;;;9.57;83.37;97184.81;5104870;27;19947;-61
2022/12/22 13:55:21;;;;;;;;;;;;;;;9.63;83.01;97190.84;5096810;28;19939;-61
2022/12/22 13:57:49;;;;;;;;;;;;;;;9.61;83.07;97202.03;5101230;27;19927;-63
2022/12/22 14:00:24;;;;;;;;;;;;;;;9.66;82.31;97198.34;5104870;28;19975;-62
2022/12/22 14:02:52;;;;;;;;;;;;;;;9.66;82.14;97201.06;5093839;28;19935;-61
2022/12/22 14:05:21;;;;;;;;;;;;;;;9.66;82.03;97207.28;5082668;28;19930;-61
2022/12/22 14:08:03;;;;;;;;;;;;;;;9.74;81.53;97208.38;5096150;28;19959;-64
2022/12/22 14:10:33;;;;;;;;;;;;;;;9.76;81.48;97208.88;5093832;28;19931;-62
2022/12/22 14:13:01;;;;;;;;;;;;;;;9.73;81.99;97220.34;5087456;28;19923;-61
2022/12/22 14:15:29;;;;;;;;;;;;;;;9.66;82.19;97236.31;5099952;28;19928;-61
2022/12/22 14:17:57;;;;;;;;;;;;;;;9.65;82.52;97229.31;5102058;28;19959;-61
2022/12/22 14:20:26;;;;;;;;;;;;;;;9.65;82.53;97230.09;5093339;28;20007;-61
2022/12/22 14:22:55;;;;;;;;;;;;;;;9.64;82.60;97233.94;5104134;28;19932;-61
2022/12/22 14:25:28;;;;;;;;;;;;;;;9.56;83.02;97234.75;5071128;28;19971;-61
2022/12/22 14:28:24;;;;;;;;;;;;;;;9.53;83.22;97238.06;5055936;28;20377;-61
2022/12/22 14:30:53;;;;;;;;;;;;;;;9.58;82.78;97240.63;5061827;28;20035;-62
2022/12/22 14:33:29;;;;;;;;;;;;;;;9.60;82.48;97249.25;5055277;28;19964;-62
2022/12/22 14:36:05;;;;;;;;;;;;;;;9.57;82.37;97246.38;5060155;28;19951;-63
2022/12/22 14:38:38;;;;;;;;;;;;;;;9.60;82.46;97249.25;5061570;28;20423;-63
2022/12/22 14:41:41;;;;;;;;;;;;;;;9.62;82.45;97259.78;5058202;28;19931;-62
2022/12/22 14:44:14;;;;;;;;;;;;;;;9.63;82.29;97258.66;5075682;28;20296;-63
2022/12/22 14:46:42;;;;;;;;;;;;;;;9.60;82.34;97260.09;5054683;28;20243;-62
2022/12/22 14:49:17;;;;;;;;;;;;;;;9.58;82.76;97261.53;5062054;28;19993;-61
2022/12/22 14:51:52;;;;;;;;;;;;;;;9.48;82.80;97259.97;5068415;28;19932;-62
2022/12/22 14:54:27;;;;;;;;;;;;;;;9.47;83.28;97266.47;5055871;28;19924;-61
2022/12/22 14:56:59;;;;;;;;;;;;;;;9.51;83.03;97272.88;5062132;28;19931;-61
2022/12/22 14:59:27;;;;;;;;;;;;;;;9.47;83.35;97268.38;5059817;28;19932;-62
2022/12/22 15:01:57;;;;;;;;;;;;;;;9.47;83.53;97282.75;5060484;28;19930;-62
2022/12/22 15:04:25;;;;;;;;;;;;;;;9.41;83.60;97279.41;5060608;28;20396;-62
2022/12/22 15:07:04;;;;;;;;;;;;;;;9.36;84.25;97287.69;5053867;28;20358;-62
2022/12/22 15:09:33;;;;;;;;;;;;;;;9.45;83.53;97293.91;5060031;28;19932;-61
2022/12/22 15:12:22;;;;;;;;;;;;;;;9.49;83.01;97294.09;5053143;28;19925;-62
2022/12/22 15:14:50;;;;;;;;;;;;;;;9.41;83.40;97295.66;5064273;28;20302;-62
2022/12/22 15:17:25;;;;;;;;;;;;;;;9.42;82.80;97299.97;5058398;28;19967;-62
2022/12/22 15:19:56;;;;;;;;;;;;;;;9.49;82.57;97304.94;5063480;28;19964;-62
2022/12/22 15:22:24;;;;;;;;;;;;;;;9.46;82.67;97313.69;5058286;28;20293;-61
2022/12/22 15:24:53;;;;;;;;;;;;;;;9.41;82.83;97306.50;5074504;28;19935;-62
2022/12/22 15:27:23;;;;;;;;;;;;;;;9.38;82.97;97312.59;5091974;27;19946;-62
2022/12/22 15:29:51;;;;;;;;;;;;;;;9.42;82.97;97312.72;5102043;27;19939;-63
2022/12/22 15:32:20;;;;;;;;;;;;;;;9.40;83.13;97314.97;5098224;27;19924;-61
2022/12/22 15:34:49;;;;;;;;;;;;;;;9.47;82.84;97330.75;5099081;27;19931;-61
2022/12/22 15:37:22;;;;;;;;;;;;;;;9.47;82.71;97330.75;5093499;28;19986;-62
2022/12/22 15:39:51;;;;;;;;;;;;;;;9.44;82.70;97332.19;5078748;28;19932;-62
2022/12/22 15:42:19;;;;;;;;;;;;;;;9.38;83.21;97339.69;5092206;27;19928;-62
2022/12/22 15:44:48;;;;;;;;;;;;;;;9.42;82.81;97335.22;5097859;28;19923;-62
2022/12/22 15:47:16;;;;;;;;;;;;;;;9.35;83.05;97343.03;5093993;28;19924;-62
2022/12/22 15:50:11;;;;;;;;;;;;;;;9.38;82.85;97350.53;5083653;28;19957;-63
2022/12/22 15:53:04;;;;;;;;;;;;;;;9.32;83.03;97353.69;5085272;27;19932;-62
2022/12/22 15:55:33;;;;;;;;;;;;;;;9.24;83.68;97355.28;5082762;27;19932;-62
2022/12/22 15:58:02;;;;;;;;;;;;;;;9.27;83.39;97360.09;5096188;27;19939;-62
2022/12/22 16:00:31;;;;;;;;;;;;;;;9.29;83.15;97367.91;5069249;28;19932;-62
2022/12/22 16:02:59;;;;;;;;;;;;;;;9.29;82.82;97371.41;5097067;27;19924;-61
2022/12/22 16:05:28;;;;;;;;;;;;;;;9.34;82.56;97360.41;5092889;28;19978;-63
2022/12/22 16:07:58;;;;;;;;;;;;;;;9.33;82.32;97371.56;5104819;27;20008;-62
2022/12/22 16:10:27;;;;;;;;;;;;;;;9.32;82.03;97368.06;5100210;28;19932;-62
2022/12/22 16:12:59;;;;;;;;;;;;;;;9.29;82.54;97367.91;5083349;27;19999;-62
2022/12/22 16:15:27;;;;;;;;;;;;;;;9.26;82.77;97374.72;5095867;27;19924;-62
2022/12/22 16:17:57;;;;;;;;;;;;;;;9.27;82.62;97381.78;5086896;28;19924;-63
2022/12/22 16:20:25;;;;;;;;;;;;;;;9.33;82.06;97380.50;5086786;28;19935;-62
2022/12/22 16:22:58;;;;;;;;;;;;;;;9.25;82.63;97383.97;5086188;28;20360;-62
2022/12/22 16:25:26;;;;;;;;;;;;;;;9.24;82.94;97381.59;5057886;28;20292;-62
2022/12/22 16:28:19;;;;;;;;;;;;;;;9.20;82.81;97384.13;5055440;28;19925;-62
2022/12/22 16:30:48;;;;;;;;;;;;;;;9.39;81.62;97395.50;5054321;28;19932;-61
2022/12/22 16:33:18;;;;;;;;;;;;;;;9.31;81.79;97382.72;5045349;28;20435;-61
2022/12/22 16:36:10;;;;;;;;;;;;;;;9.38;81.39;97390.41;5047661;28;20565;-61
2022/12/22 16:38:40;;;;;;;;;;;;;;;9.37;81.28;97392.28;5058535;28;19971;-61
2022/12/22 16:41:57;;;;;;;;;;;;;;;9.29;81.41;97387.66;5045694;28;19993;-62
2022/12/22 16:44:30;;;;;;;;;;;;;;;9.40;80.86;97399.00;5051444;28;19939;-61
2022/12/22 16:47:17;;;;;;;;;;;;;;;9.40;80.57;97401.72;5064664;28;19940;-61
2022/12/22 16:50:35;;;;;;;;;;;;;;;9.34;80.69;97398.38;5052970;28;19936;-62
2022/12/22 16:55:55;;;;;;;;;;;;;;;9.33;80.82;97395.97;5046398;28;19926;-62
2022/12/22 16:58:24;;;;;;;;;;;;;;;9.26;81.26;97403.75;5051720;28;19925;-67
2022/12/22 17:00:52;;;;;;;;;;;;;;;9.28;80.75;97409.69;5064448;28;19994;-67
2022/12/22 17:03:21;;;;;;;;;;;;;;;9.26;81.04;97406.47;5064390;28;19970;-67
2022/12/22 17:05:51;;;;;;;;;;;;;;;9.21;81.32;97404.69;5048894;28;19931;-67
2022/12/22 17:08:21;;;;;;;;;;;;;;;9.18;81.28;97406.13;5063024;28;20377;-67
2022/12/22 17:10:49;;;;;;;;;;;;;;;9.16;81.57;97408.38;5060285;28;20373;-67
2022/12/22 17:13:17;;;;;;;;;;;;;;;9.23;81.30;97401.69;5060855;28;19932;-67
2022/12/22 17:15:45;;;;;;;;;;;;;;;9.19;81.60;97406.94;5058390;28;19928;-68
2022/12/22 17:18:19;;;;;;;;;;;;;;;9.15;81.87;97400.53;5056575;28;19995;-67
2022/12/22 17:20:47;;;;;;;;;;;;;;;9.23;81.55;97407.91;5063340;28;19931;-67